Time;durP1;ratioP1;P1;durP2;ratioP2;P2;SDS_P1;SDS_P2;PMS_P1;PMS_P2;Temp;Humidity;BMP_temperature;BMP_pressure;BME280_temperature;BME280_humidity;BME280_pressure;Samples;Min_cycle;Max_cycle;Signal;HPM_P1;HPM_P2
2023/09/18 00:01:28;;;;;;;15.93;15.03;;;;;;;;;;4992358;28;20446;-46
2023/09/18 00:03:54;;;;;;;15.40;14.50;;;;;;;;;;4992392;28;20494;-46
2023/09/18 00:06:23;;;;;;;16.00;15.10;;;;;;;;;;4992466;28;20415;-46
2023/09/18 00:08:51;;;;;;;16.20;15.27;;;;;;;;;;4994620;28;20426;-47
2023/09/18 00:11:16;;;;;;;15.90;15.00;;;;;;;;;;4996285;28;20559;-46
2023/09/18 00:13:42;;;;;;;15.50;14.60;;;;;;;;;;4998109;28;20427;-46
2023/09/18 00:16:08;;;;;;;16.90;15.90;;;;;;;;;;4986735;28;20411;-46
2023/09/18 00:18:34;;;;;;;16.50;15.60;;;;;;;;;;4993085;28;20445;-48
2023/09/18 00:21:00;;;;;;;16.17;15.27;;;;;;;;;;4994602;28;20410;-46
2023/09/18 00:23:26;;;;;;;16.17;15.27;;;;;;;;;;4993873;28;20495;-47
2023/09/18 00:25:52;;;;;;;16.13;15.23;;;;;;;;;;4994245;28;20412;-48
2023/09/18 00:28:18;;;;;;;16.77;15.80;;;;;;;;;;4992391;28;20467;-46
2023/09/18 00:30:48;;;;;;;16.57;15.57;;;;;;;;;;4999268;28;20507;-47
2023/09/18 00:33:14;;;;;;;17.10;16.10;;;;;;;;;;4992162;28;20507;-46
2023/09/18 00:35:40;;;;;;;16.10;15.20;;;;;;;;;;4992578;28;20422;-46
2023/09/18 00:38:07;;;;;;;16.07;15.17;;;;;;;;;;4994179;28;20498;-46
2023/09/18 00:40:33;;;;;;;16.60;15.60;;;;;;;;;;5000157;28;20439;-46
2023/09/18 00:42:59;;;;;;;16.37;15.40;;;;;;;;;;4997047;28;20422;-47
2023/09/18 00:45:25;;;;;;;15.73;14.83;;;;;;;;;;4995925;28;20398;-46
2023/09/18 00:47:51;;;;;;;16.07;15.17;;;;;;;;;;4995788;28;20469;-46
2023/09/18 00:50:17;;;;;;;17.40;16.40;;;;;;;;;;4997872;28;20439;-46
2023/09/18 00:52:43;;;;;;;16.50;15.53;;;;;;;;;;4999720;28;20412;-47
2023/09/18 00:55:09;;;;;;;15.97;15.07;;;;;;;;;;4995750;28;20393;-46
2023/09/18 00:57:35;;;;;;;16.33;15.43;;;;;;;;;;4995648;28;20411;-46
2023/09/18 01:00:04;;;;;;;16.37;15.47;;;;;;;;;;4995361;28;20447;-46
2023/09/18 01:02:30;;;;;;;16.80;15.80;;;;;;;;;;4995809;28;21014;-46
2023/09/18 01:04:56;;;;;;;15.97;15.07;;;;;;;;;;4996939;28;20451;-47
2023/09/18 01:07:22;;;;;;;16.80;15.80;;;;;;;;;;4995208;28;20836;-46
2023/09/18 01:09:48;;;;;;;16.27;15.27;;;;;;;;;;4994752;28;20475;-45
2023/09/18 01:12:46;;;;;;;16.53;15.53;;;;;;;;;;4995091;28;20419;-45
2023/09/18 01:15:20;;;;;;;16.00;15.00;;;;;;;;;;4968117;28;20397;-46
2023/09/18 01:17:46;;;;;;;15.87;14.87;;;;;;;;;;4997583;28;20386;-45
2023/09/18 01:20:12;;;;;;;17.03;16.03;;;;;;;;;;4998983;28;20424;-45
2023/09/18 01:22:38;;;;;;;16.70;15.70;;;;;;;;;;5000086;28;20478;-45
2023/09/18 01:25:06;;;;;;;16.70;15.70;;;;;;;;;;4997636;28;20416;-45
2023/09/18 01:27:32;;;;;;;15.73;14.73;;;;;;;;;;4999968;28;20420;-45
2023/09/18 01:29:58;;;;;;;16.57;15.57;;;;;;;;;;4994508;28;20463;-46
2023/09/18 01:32:26;;;;;;;16.17;15.17;;;;;;;;;;4997303;28;20434;-46
2023/09/18 01:34:54;;;;;;;16.20;15.20;;;;;;;;;;4998921;28;20393;-46
2023/09/18 01:37:21;;;;;;;15.67;14.70;;;;;;;;;;5000494;28;20386;-45
2023/09/18 01:39:48;;;;;;;16.23;15.23;;;;;;;;;;5001605;28;20434;-45
2023/09/18 01:42:14;;;;;;;15.60;14.70;;;;;;;;;;4994845;28;20478;-45
2023/09/18 01:44:40;;;;;;;16.20;15.20;;;;;;;;;;4996636;28;20407;-45
2023/09/18 01:47:08;;;;;;;16.03;15.03;;;;;;;;;;4994990;28;20415;-45
2023/09/18 01:49:36;;;;;;;16.03;15.03;;;;;;;;;;4993537;28;20467;-45
2023/09/18 01:52:02;;;;;;;15.97;14.97;;;;;;;;;;4994701;28;20397;-46
2023/09/18 01:54:28;;;;;;;15.63;14.63;;;;;;;;;;4994566;28;20378;-47
2023/09/18 01:56:54;;;;;;;15.47;14.47;;;;;;;;;;4994964;28;20824;-45
2023/09/18 01:59:20;;;;;;;15.17;14.27;;;;;;;;;;4994040;28;20427;-45
2023/09/18 02:01:46;;;;;;;14.93;14.03;;;;;;;;;;4998322;28;20524;-47
2023/09/18 02:04:12;;;;;;;15.57;14.57;;;;;;;;;;4995699;28;20495;-45
2023/09/18 02:06:39;;;;;;;15.97;14.97;;;;;;;;;;4998487;28;20827;-45
2023/09/18 02:09:07;;;;;;;15.93;14.93;;;;;;;;;;5000981;28;20438;-45
2023/09/18 02:11:33;;;;;;;14.90;14.00;;;;;;;;;;4994276;28;20486;-45
2023/09/18 02:14:00;;;;;;;14.70;13.80;;;;;;;;;;4996277;28;20740;-45
2023/09/18 02:16:26;;;;;;;14.30;13.40;;;;;;;;;;4994221;28;20378;-46
2023/09/18 02:18:55;;;;;;;15.47;14.50;;;;;;;;;;4999404;28;20416;-46
2023/09/18 02:21:21;;;;;;;15.00;14.10;;;;;;;;;;4993980;28;20444;-46
2023/09/18 02:23:51;;;;;;;14.70;13.80;;;;;;;;;;4993929;28;20430;-46
2023/09/18 02:26:20;;;;;;;15.47;14.57;;;;;;;;;;4994034;28;20409;-45
2023/09/18 02:28:47;;;;;;;14.70;13.80;;;;;;;;;;4995943;28;20434;-45
2023/09/18 02:31:12;;;;;;;14.73;13.83;;;;;;;;;;4997462;28;20946;-45
2023/09/18 02:33:39;;;;;;;14.97;14.07;;;;;;;;;;4999307;28;20383;-45
2023/09/18 02:36:05;;;;;;;15.40;14.47;;;;;;;;;;5000760;28;20387;-45
2023/09/18 02:38:31;;;;;;;15.53;14.53;;;;;;;;;;4993774;28;20936;-45
2023/09/18 02:40:57;;;;;;;15.07;14.17;;;;;;;;;;4995364;28;20413;-45
2023/09/18 02:43:23;;;;;;;15.77;14.80;;;;;;;;;;4994747;28;20474;-46
2023/09/18 02:45:50;;;;;;;15.00;14.07;;;;;;;;;;4994908;28;20485;-46
2023/09/18 02:48:16;;;;;;;14.97;14.07;;;;;;;;;;4992536;28;20463;-46
2023/09/18 02:50:42;;;;;;;14.90;14.00;;;;;;;;;;4993605;28;20432;-46
2023/09/18 02:53:08;;;;;;;15.30;14.40;;;;;;;;;;4993526;28;20394;-47
2023/09/18 02:55:34;;;;;;;15.90;14.90;;;;;;;;;;4993389;28;20408;-47
2023/09/18 02:58:00;;;;;;;15.93;14.93;;;;;;;;;;4997025;28;20399;-46
2023/09/18 03:00:26;;;;;;;14.70;13.80;;;;;;;;;;4995487;28;20835;-47
2023/09/18 03:02:52;;;;;;;14.77;13.87;;;;;;;;;;4995092;28;20416;-46
2023/09/18 03:05:18;;;;;;;15.27;14.37;;;;;;;;;;5000091;28;20419;-46
2023/09/18 03:07:44;;;;;;;15.50;14.53;;;;;;;;;;4993237;28;20382;-47
2023/09/18 03:10:13;;;;;;;16.20;15.20;;;;;;;;;;4994678;28;20466;-47
2023/09/18 03:12:39;;;;;;;16.30;15.30;;;;;;;;;;4993153;28;20423;-46
2023/09/18 03:15:06;;;;;;;16.47;15.47;;;;;;;;;;4993101;28;20448;-46
2023/09/18 03:17:33;;;;;;;18.80;17.70;;;;;;;;;;4998455;28;20410;-47
2023/09/18 03:19:59;;;;;;;18.13;17.03;;;;;;;;;;4993887;28;20443;-46
2023/09/18 03:22:25;;;;;;;18.60;17.50;;;;;;;;;;4993050;28;20402;-46
2023/09/18 03:24:51;;;;;;;18.73;17.63;;;;;;;;;;4992912;28;20451;-46
2023/09/18 03:27:17;;;;;;;17.77;16.67;;;;;;;;;;4992969;28;20665;-46
2023/09/18 03:29:42;;;;;;;17.50;16.50;;;;;;;;;;4997765;28;20477;-46
2023/09/18 03:32:12;;;;;;;17.57;16.57;;;;;;;;;;4999618;28;20379;-47
2023/09/18 03:34:38;;;;;;;17.43;16.43;;;;;;;;;;4992831;28;20411;-47
2023/09/18 03:37:04;;;;;;;16.93;15.93;;;;;;;;;;4994451;28;20383;-46
2023/09/18 03:39:30;;;;;;;17.90;16.80;;;;;;;;;;4994092;28;20436;-46
2023/09/18 03:41:56;;;;;;;17.40;16.40;;;;;;;;;;4994356;28;20411;-47
2023/09/18 03:44:22;;;;;;;19.43;18.33;;;;;;;;;;4992697;28;20431;-47
2023/09/18 03:46:48;;;;;;;17.87;16.80;;;;;;;;;;4992551;28;20423;-46
2023/09/18 03:49:14;;;;;;;17.90;16.90;;;;;;;;;;4992245;28;20465;-46
2023/09/18 03:51:40;;;;;;;17.67;16.67;;;;;;;;;;4994176;28;20436;-47
2023/09/18 03:54:06;;;;;;;18.60;17.50;;;;;;;;;;4996161;28;20571;-46
2023/09/18 03:56:32;;;;;;;18.47;17.40;;;;;;;;;;4995985;28;20411;-47
2023/09/18 03:59:00;;;;;;;17.87;16.87;;;;;;;;;;4993581;28;20416;-47
2023/09/18 04:01:26;;;;;;;18.80;17.70;;;;;;;;;;4992371;28;20431;-46
2023/09/18 04:03:53;;;;;;;18.80;17.70;;;;;;;;;;4992399;28;20416;-47
2023/09/18 04:06:20;;;;;;;19.10;18.00;;;;;;;;;;4994636;28;20884;-46
2023/09/18 04:08:46;;;;;;;19.40;18.30;;;;;;;;;;4995761;28;20467;-46
2023/09/18 04:11:12;;;;;;;17.50;16.50;;;;;;;;;;4997145;28;20955;-47
2023/09/18 04:13:38;;;;;;;17.97;16.97;;;;;;;;;;4992052;28;20408;-46
2023/09/18 04:16:05;;;;;;;18.00;17.00;;;;;;;;;;4992400;28;20416;-46
2023/09/18 04:18:31;;;;;;;18.40;17.30;;;;;;;;;;4992182;28;20498;-47
2023/09/18 04:20:57;;;;;;;17.13;16.13;;;;;;;;;;4991975;28;20435;-46
2023/09/18 04:23:24;;;;;;;17.37;16.37;;;;;;;;;;4995441;28;20440;-46
2023/09/18 04:25:51;;;;;;;18.83;17.73;;;;;;;;;;4997166;28;20420;-46
2023/09/18 04:28:18;;;;;;;18.60;17.50;;;;;;;;;;4998679;28;20542;-47
2023/09/18 04:30:44;;;;;;;18.30;17.20;;;;;;;;;;4991890;28;20470;-46
2023/09/18 04:33:11;;;;;;;18.60;17.50;;;;;;;;;;4993843;28;20915;-47
2023/09/18 04:35:39;;;;;;;18.30;17.20;;;;;;;;;;4994549;28;20884;-47
2023/09/18 04:38:05;;;;;;;19.57;18.47;;;;;;;;;;4992302;28;20499;-46
2023/09/18 04:40:32;;;;;;;18.50;17.40;;;;;;;;;;4996764;28;20435;-46
2023/09/18 04:42:58;;;;;;;17.87;16.87;;;;;;;;;;4998530;28;20412;-47
2023/09/18 04:45:25;;;;;;;16.60;15.60;;;;;;;;;;4992015;28;20427;-47
2023/09/18 04:47:51;;;;;;;17.20;16.20;;;;;;;;;;4992197;28;20423;-47
2023/09/18 04:50:17;;;;;;;17.60;16.60;;;;;;;;;;4994683;28;20471;-46
2023/09/18 04:52:43;;;;;;;19.17;18.10;;;;;;;;;;4996792;28;20407;-47
2023/09/18 04:55:09;;;;;;;17.57;16.57;;;;;;;;;;4993882;28;20414;-47
2023/09/18 04:57:35;;;;;;;18.47;17.40;;;;;;;;;;4996419;28;20892;-46
2023/09/18 05:00:01;;;;;;;19.13;18.03;;;;;;;;;;4999562;28;20438;-46
2023/09/18 05:02:27;;;;;;;18.83;17.73;;;;;;;;;;4992006;28;20455;-46
2023/09/18 05:04:55;;;;;;;18.70;17.67;;;;;;;;;;4995351;28;20444;-46
2023/09/18 05:07:20;;;;;;;17.00;16.10;;;;;;;;;;4991981;28;20422;-47
2023/09/18 05:09:46;;;;;;;17.17;16.17;;;;;;;;;;4997810;28;20550;-46
2023/09/18 05:12:15;;;;;;;16.87;15.87;;;;;;;;;;4995879;28;20411;-46
2023/09/18 05:14:41;;;;;;;18.20;17.20;;;;;;;;;;4995245;28;20434;-46
2023/09/18 05:17:11;;;;;;;17.87;16.87;;;;;;;;;;4991708;28;20923;-47
2023/09/18 05:19:37;;;;;;;17.67;16.67;;;;;;;;;;4991406;28;20447;-46
2023/09/18 05:22:03;;;;;;;16.43;15.53;;;;;;;;;;4996409;28;20493;-46
2023/09/18 05:24:29;;;;;;;17.60;16.60;;;;;;;;;;4999166;28;20390;-47
2023/09/18 05:26:55;;;;;;;17.60;16.60;;;;;;;;;;5003125;28;20419;-46
2023/09/18 05:29:21;;;;;;;15.93;15.03;;;;;;;;;;4994648;28;20529;-46
2023/09/18 05:31:47;;;;;;;16.30;15.40;;;;;;;;;;4998047;28;20415;-46
2023/09/18 05:34:13;;;;;;;17.57;16.57;;;;;;;;;;4995173;28;20400;-47
2023/09/18 05:36:39;;;;;;;18.60;17.50;;;;;;;;;;4995017;28;20378;-46
2023/09/18 05:39:11;;;;;;;18.17;17.17;;;;;;;;;;5000943;28;20929;-46
2023/09/18 05:41:37;;;;;;;16.30;15.40;;;;;;;;;;5002655;28;20448;-46
2023/09/18 05:44:04;;;;;;;17.33;16.33;;;;;;;;;;4994933;28;20423;-46
2023/09/18 05:46:31;;;;;;;17.53;16.53;;;;;;;;;;4997838;28;20412;-46
2023/09/18 05:48:58;;;;;;;16.87;15.87;;;;;;;;;;4999007;28;20892;-46
2023/09/18 05:51:24;;;;;;;16.80;15.80;;;;;;;;;;4994557;28;20917;-47
2023/09/18 05:53:50;;;;;;;16.80;15.80;;;;;;;;;;4994649;28;20475;-46
2023/09/18 05:56:17;;;;;;;16.83;15.83;;;;;;;;;;4994747;28;20763;-46
2023/09/18 05:58:43;;;;;;;17.10;16.10;;;;;;;;;;4994495;28;20888;-47
2023/09/18 06:01:09;;;;;;;16.23;15.30;;;;;;;;;;4997275;28;20459;-47
2023/09/18 06:03:35;;;;;;;20.33;19.10;;;;;;;;;;4998968;28;20434;-46
2023/09/18 06:06:05;;;;;;;19.17;18.03;;;;;;;;;;5000754;28;20390;-46
2023/09/18 06:08:31;;;;;;;17.63;16.63;;;;;;;;;;5000569;28;20766;-47
2023/09/18 06:10:57;;;;;;;18.90;17.80;;;;;;;;;;4995373;28;20432;-47
2023/09/18 06:13:25;;;;;;;17.13;16.13;;;;;;;;;;4989164;28;20791;-46
2023/09/18 06:15:52;;;;;;;18.10;17.00;;;;;;;;;;4994389;28;20834;-47
2023/09/18 06:18:20;;;;;;;19.00;17.90;;;;;;;;;;4994037;28;20398;-46
2023/09/18 06:20:46;;;;;;;18.50;17.40;;;;;;;;;;4993863;28;20863;-46
2023/09/18 06:23:12;;;;;;;17.97;16.90;;;;;;;;;;4994314;28;20432;-46
2023/09/18 06:25:38;;;;;;;17.73;16.73;;;;;;;;;;4990165;28;20474;-46
2023/09/18 06:28:04;;;;;;;18.27;17.20;;;;;;;;;;4993971;28;20842;-46
2023/09/18 06:30:32;;;;;;;17.23;16.23;;;;;;;;;;4993661;28;20432;-46
2023/09/18 06:32:58;;;;;;;16.90;15.90;;;;;;;;;;4993868;28;20412;-46
2023/09/18 06:35:24;;;;;;;17.43;16.43;;;;;;;;;;4993613;28;20478;-46
2023/09/18 06:37:50;;;;;;;18.00;16.90;;;;;;;;;;4993725;28;20425;-47
2023/09/18 06:40:16;;;;;;;17.83;16.83;;;;;;;;;;4993412;28;20398;-45
2023/09/18 06:42:42;;;;;;;22.00;20.77;;;;;;;;;;4993848;28;20462;-46
2023/09/18 06:45:08;;;;;;;28.77;27.30;;;;;;;;;;4993720;28;20414;-46
2023/09/18 06:47:35;;;;;;;28.30;26.90;;;;;;;;;;4993583;28;20481;-46
2023/09/18 06:50:01;;;;;;;28.80;27.30;;;;;;;;;;4993104;28;20973;-46
2023/09/18 06:52:27;;;;;;;29.50;28.00;;;;;;;;;;4993503;28;20942;-46
2023/09/18 06:54:53;;;;;;;28.73;27.23;;;;;;;;;;4993487;28;20421;-46
2023/09/18 06:57:21;;;;;;;29.23;27.73;;;;;;;;;;4993402;28;20416;-46
2023/09/18 06:59:47;;;;;;;29.93;28.43;;;;;;;;;;4992957;28;20455;-46
2023/09/18 07:02:14;;;;;;;28.37;26.87;;;;;;;;;;4993472;28;20408;-46
2023/09/18 07:04:44;;;;;;;29.07;27.47;;;;;;;;;;4993345;28;20415;-47
2023/09/18 07:07:11;;;;;;;27.57;26.07;;;;;;;;;;4989278;28;20473;-46
2023/09/18 07:09:37;;;;;;;28.27;26.77;;;;;;;;;;4992830;28;20475;-46
2023/09/18 07:12:03;;;;;;;28.90;27.20;;;;;;;;;;4989122;28;20424;-45
2023/09/18 07:14:29;;;;;;;29.80;28.20;;;;;;;;;;4993036;28;20849;-48
2023/09/18 07:16:55;;;;;;;28.07;26.57;;;;;;;;;;4992872;28;20414;-47
2023/09/18 07:19:21;;;;;;;27.93;26.43;;;;;;;;;;4992660;28;20474;-47
2023/09/18 07:21:47;;;;;;;27.50;26.00;;;;;;;;;;4993255;28;20412;-46
2023/09/18 07:24:16;;;;;;;28.27;26.67;;;;;;;;;;4993134;28;20439;-47
2023/09/18 07:26:43;;;;;;;27.90;26.33;;;;;;;;;;4992992;28;20470;-46
2023/09/18 07:29:09;;;;;;;28.80;27.30;;;;;;;;;;4985335;28;20462;-46
2023/09/18 07:31:35;;;;;;;29.80;28.17;;;;;;;;;;4992711;28;20515;-47
2023/09/18 07:34:01;;;;;;;30.60;28.90;;;;;;;;;;4992821;28;20470;-46
2023/09/18 07:36:27;;;;;;;27.47;26.07;;;;;;;;;;4992575;28;20416;-46
2023/09/18 07:38:54;;;;;;;28.40;26.90;;;;;;;;;;4992843;28;20503;-46
2023/09/18 07:41:22;;;;;;;28.33;26.83;;;;;;;;;;4992475;28;20482;-46
2023/09/18 07:43:48;;;;;;;29.97;28.37;;;;;;;;;;4992514;28;20426;-46
2023/09/18 07:46:14;;;;;;;30.40;28.80;;;;;;;;;;4992515;28;20419;-46
2023/09/18 07:48:40;;;;;;;31.97;30.30;;;;;;;;;;4991929;28;20465;-46
2023/09/18 07:51:06;;;;;;;31.33;29.73;;;;;;;;;;4992129;28;20930;-46
2023/09/18 07:53:32;;;;;;;28.90;27.40;;;;;;;;;;4992486;28;20559;-46
2023/09/18 07:55:58;;;;;;;30.50;28.90;;;;;;;;;;4992482;28;20412;-46
2023/09/18 07:58:27;;;;;;;32.13;30.43;;;;;;;;;;4991278;28;20444;-46
2023/09/18 08:00:53;;;;;;;30.93;29.33;;;;;;;;;;4999022;28;20433;-46
2023/09/18 08:03:22;;;;;;;30.40;28.80;;;;;;;;;;4991206;28;20912;-46
2023/09/18 08:05:52;;;;;;;31.70;30.10;;;;;;;;;;4995026;28;20415;-46
2023/09/18 08:08:18;;;;;;;31.40;29.80;;;;;;;;;;4992245;28;20463;-46
2023/09/18 08:10:44;;;;;;;30.03;28.43;;;;;;;;;;4994906;28;20428;-46
2023/09/18 08:13:10;;;;;;;29.13;27.63;;;;;;;;;;4992305;28;20967;-46
2023/09/18 08:15:35;;;;;;;31.27;29.67;;;;;;;;;;4999927;28;20424;-46
2023/09/18 08:18:01;;;;;;;30.07;28.47;;;;;;;;;;4993568;28;20408;-46
2023/09/18 08:20:28;;;;;;;31.23;29.63;;;;;;;;;;4992021;28;20955;-46
2023/09/18 08:22:54;;;;;;;28.47;27.07;;;;;;;;;;4992121;28;20410;-46
2023/09/18 08:25:20;;;;;;;27.63;26.23;;;;;;;;;;4995611;28;20408;-46
2023/09/18 08:27:47;;;;;;;28.40;27.00;;;;;;;;;;4995375;28;20899;-46
2023/09/18 08:30:13;;;;;;;27.93;26.53;;;;;;;;;;4992014;28;20825;-47
2023/09/18 08:32:40;;;;;;;28.50;27.00;;;;;;;;;;4992146;28;20511;-46
2023/09/18 08:35:06;;;;;;;28.10;26.63;;;;;;;;;;4994740;28;20946;-46
2023/09/18 08:37:32;;;;;;;30.70;29.10;;;;;;;;;;4996588;28;20792;-46
2023/09/18 08:40:00;;;;;;;28.23;26.73;;;;;;;;;;4997740;28;20405;-46
2023/09/18 08:42:29;;;;;;;31.87;30.17;;;;;;;;;;4996937;28;20426;-47
2023/09/18 08:44:56;;;;;;;30.90;29.30;;;;;;;;;;4993532;28;20451;-46
2023/09/18 08:47:23;;;;;;;29.97;28.37;;;;;;;;;;4992145;28;20447;-46
2023/09/18 08:49:50;;;;;;;30.30;28.70;;;;;;;;;;4994504;28;20460;-47
2023/09/18 08:52:16;;;;;;;31.80;30.10;;;;;;;;;;4996424;28;20398;-46
2023/09/18 08:54:44;;;;;;;29.63;28.03;;;;;;;;;;4997864;28;20408;-46
2023/09/18 08:57:12;;;;;;;29.67;28.10;;;;;;;;;;4991834;28;20416;-47
2023/09/18 08:59:40;;;;;;;30.87;29.27;;;;;;;;;;4994619;28;20462;-47
2023/09/18 09:02:06;;;;;;;30.73;29.13;;;;;;;;;;4998644;28;20416;-46
2023/09/18 09:04:32;;;;;;;29.53;28.00;;;;;;;;;;4998827;28;20481;-46
2023/09/18 09:06:59;;;;;;;30.37;28.77;;;;;;;;;;4996823;28;20866;-46
2023/09/18 09:09:26;;;;;;;28.90;27.40;;;;;;;;;;4996127;28;20466;-46
2023/09/18 09:11:52;;;;;;;30.73;29.13;;;;;;;;;;5003013;28;20494;-46
2023/09/18 09:14:21;;;;;;;30.80;29.23;;;;;;;;;;4995449;28;20419;-46
2023/09/18 09:16:51;;;;;;;29.53;28.03;;;;;;;;;;4995178;28;20394;-46
2023/09/18 09:19:17;;;;;;;30.53;28.93;;;;;;;;;;4999379;28;20419;-46
2023/09/18 09:21:44;;;;;;;29.23;27.73;;;;;;;;;;4995271;28;20394;-46
2023/09/18 09:24:13;;;;;;;30.20;28.60;;;;;;;;;;4998242;28;20541;-46
2023/09/18 09:26:40;;;;;;;30.67;29.17;;;;;;;;;;4999088;28;20379;-46
2023/09/18 09:29:20;;;;;;;32.00;30.40;;;;;;;;;;4994781;28;20469;-46
2023/09/18 09:31:47;;;;;;;28.90;27.40;;;;;;;;;;4995084;28;20415;-47
2023/09/18 09:34:13;;;;;;;28.73;27.30;;;;;;;;;;4994968;28;20414;-47
2023/09/18 09:36:54;;;;;;;28.60;27.10;;;;;;;;;;5000922;28;20428;-47
2023/09/18 09:39:25;;;;;;;28.37;26.90;;;;;;;;;;4995903;28;20415;-47
2023/09/18 09:41:52;;;;;;;29.83;28.33;;;;;;;;;;4995020;28;20413;-46
2023/09/18 09:44:20;;;;;;;30.50;28.90;;;;;;;;;;4997464;28;20452;-46
2023/09/18 09:46:48;;;;;;;30.87;29.27;;;;;;;;;;4999150;28;20497;-46
2023/09/18 09:49:15;;;;;;;29.53;28.03;;;;;;;;;;4996333;28;20481;-46
2023/09/18 09:51:42;;;;;;;29.70;28.20;;;;;;;;;;4998518;28;20818;-46
2023/09/18 09:54:08;;;;;;;29.20;27.70;;;;;;;;;;4994978;28;20425;-46
2023/09/18 09:56:44;;;;;;;29.93;28.43;;;;;;;;;;4994792;28;20464;-47
2023/09/18 09:59:11;;;;;;;33.20;31.50;;;;;;;;;;4989374;28;20413;-46
2023/09/18 10:01:38;;;;;;;31.37;29.77;;;;;;;;;;4998762;28;20951;-46
2023/09/18 10:04:13;;;;;;;31.50;29.90;;;;;;;;;;5000331;28;20400;-46
2023/09/18 10:06:42;;;;;;;31.57;30.00;;;;;;;;;;5001911;28;20390;-46
2023/09/18 10:09:10;;;;;;;30.80;29.30;;;;;;;;;;4995170;28;20548;-45
2023/09/18 10:11:38;;;;;;;31.07;29.47;;;;;;;;;;4995312;28;20429;-45
2023/09/18 10:14:10;;;;;;;31.87;30.27;;;;;;;;;;4994711;28;20503;-45
2023/09/18 10:16:38;;;;;;;33.03;31.33;;;;;;;;;;4998301;28;20848;-45
2023/09/18 10:19:28;;;;;;;31.23;29.63;;;;;;;;;;4993849;28;20414;-46
2023/09/18 10:22:05;;;;;;;33.77;32.03;;;;;;;;;;5001388;28;20457;-47
2023/09/18 10:24:33;;;;;;;33.73;31.93;;;;;;;;;;4994107;28;20418;-45
2023/09/18 10:27:00;;;;;;;30.70;29.20;;;;;;;;;;4996453;28;20786;-45
2023/09/18 10:29:27;;;;;;;30.63;29.13;;;;;;;;;;4993550;28;20561;-45
2023/09/18 10:31:54;;;;;;;29.83;28.33;;;;;;;;;;4994219;28;20414;-46
2023/09/18 10:34:21;;;;;;;31.40;29.80;;;;;;;;;;4998560;28;20798;-45
2023/09/18 10:36:51;;;;;;;31.73;30.13;;;;;;;;;;4996510;28;20406;-45
2023/09/18 10:39:23;;;;;;;32.00;30.40;;;;;;;;;;4993670;28;20415;-45
2023/09/18 10:41:51;;;;;;;32.83;31.23;;;;;;;;;;4996086;28;20416;-46
2023/09/18 10:44:17;;;;;;;33.57;31.87;;;;;;;;;;4993569;28;20412;-45
2023/09/18 10:46:44;;;;;;;30.63;29.13;;;;;;;;;;4999265;28;20858;-45
2023/09/18 10:49:10;;;;;;;32.87;31.27;;;;;;;;;;4993093;28;20459;-46
2023/09/18 10:51:40;;;;;;;34.40;32.70;;;;;;;;;;4993531;28;20958;-45
2023/09/18 10:54:08;;;;;;;34.00;32.33;;;;;;;;;;4995771;28;20412;-47
2023/09/18 10:56:34;;;;;;;31.47;29.90;;;;;;;;;;4993496;28;20470;-46
2023/09/18 10:59:00;;;;;;;31.97;30.47;;;;;;;;;;4993164;28;20478;-46
2023/09/18 11:01:28;;;;;;;30.00;28.57;;;;;;;;;;4987828;28;20939;-46
2023/09/18 11:03:59;;;;;;;30.00;28.50;;;;;;;;;;5000355;28;20416;-45
2023/09/18 11:06:26;;;;;;;31.97;30.37;;;;;;;;;;4993362;28;20418;-47
2023/09/18 11:09:01;;;;;;;30.60;29.10;;;;;;;;;;4993045;28;20963;-46
2023/09/18 11:11:29;;;;;;;31.60;29.97;;;;;;;;;;4993128;28;20427;-46
2023/09/18 11:13:57;;;;;;;32.60;30.93;;;;;;;;;;4998996;28;20411;-45
2023/09/18 11:16:44;;;;;;;31.27;29.67;;;;;;;;;;4992753;28;20420;-46
2023/09/18 11:19:11;;;;;;;31.63;30.03;;;;;;;;;;4983699;28;20426;-45
2023/09/18 11:21:37;;;;;;;30.97;29.37;;;;;;;;;;4992186;28;20810;-47
2023/09/18 11:24:11;;;;;;;30.00;28.50;;;;;;;;;;4992901;28;20950;-45
2023/09/18 11:26:47;;;;;;;27.67;26.37;;;;;;;;;;4992845;28;20416;-45
2023/09/18 11:29:19;;;;;;;32.17;30.57;;;;;;;;;;4996106;28;20534;-45
2023/09/18 11:31:47;;;;;;;31.43;29.87;;;;;;;;;;4999340;28;20507;-45
2023/09/18 11:34:18;;;;;;;28.50;27.13;;;;;;;;;;4992704;28;20412;-45
2023/09/18 11:36:44;;;;;;;28.83;27.43;;;;;;;;;;4994872;28;20416;-45
2023/09/18 11:39:11;;;;;;;33.57;31.97;;;;;;;;;;4996238;28;20753;-45
2023/09/18 11:41:38;;;;;;;30.13;28.73;;;;;;;;;;4992761;28;20849;-46
2023/09/18 11:44:08;;;;;;;31.90;30.40;;;;;;;;;;4992473;28;20408;-46
2023/09/18 11:46:34;;;;;;;30.60;29.20;;;;;;;;;;4992665;28;20499;-45
2023/09/18 11:49:00;;;;;;;30.63;29.13;;;;;;;;;;4992080;28;20904;-45
2023/09/18 11:51:26;;;;;;;31.53;30.03;;;;;;;;;;4994586;28;20463;-46
2023/09/18 11:53:55;;;;;;;30.97;29.47;;;;;;;;;;4992426;28;20466;-47
2023/09/18 11:56:21;;;;;;;30.77;29.27;;;;;;;;;;4997731;28;20412;-45
2023/09/18 11:58:51;;;;;;;29.13;27.73;;;;;;;;;;4999010;28;20403;-45
2023/09/18 12:01:22;;;;;;;30.13;28.63;;;;;;;;;;4992090;28;20439;-45
2023/09/18 12:03:54;;;;;;;29.30;27.80;;;;;;;;;;4992384;28;20420;-45
2023/09/18 12:06:20;;;;;;;19.20;18.20;;;;;;;;;;4992999;28;20407;-44
2023/09/18 12:08:46;;;;;;;18.73;17.63;;;;;;;;;;4995106;28;20467;-45
2023/09/18 12:11:16;;;;;;;18.77;17.67;;;;;;;;;;4997187;28;20801;-44
2023/09/18 12:13:43;;;;;;;18.43;17.43;;;;;;;;;;4999265;28;20412;-44
2023/09/18 12:16:09;;;;;;;19.27;18.17;;;;;;;;;;4984713;28;20412;-44
2023/09/18 12:18:37;;;;;;;19.60;18.50;;;;;;;;;;4991997;28;20412;-45
2023/09/18 12:21:06;;;;;;;19.47;18.37;;;;;;;;;;4995568;28;20439;-45
2023/09/18 12:23:45;;;;;;;20.37;19.17;;;;;;;;;;4995925;28;20926;-45
2023/09/18 12:26:15;;;;;;;19.30;18.20;;;;;;;;;;4993842;28;20770;-45
2023/09/18 12:28:42;;;;;;;18.87;17.87;;;;;;;;;;4995620;28;20451;-45
2023/09/18 12:31:12;;;;;;;19.33;18.23;;;;;;;;;;4983944;28;20507;-45
2023/09/18 12:33:38;;;;;;;19.73;18.63;;;;;;;;;;4993988;28;20919;-45
2023/09/18 12:36:05;;;;;;;18.40;17.40;;;;;;;;;;4999192;28;20496;-46
2023/09/18 12:38:31;;;;;;;19.13;18.13;;;;;;;;;;5001258;28;20903;-45
2023/09/18 12:41:05;;;;;;;18.70;17.80;;;;;;;;;;4995673;28;20436;-45
2023/09/18 12:43:32;;;;;;;21.10;20.00;;;;;;;;;;4996078;28;20408;-45
2023/09/18 12:45:59;;;;;;;20.20;19.10;;;;;;;;;;4995912;28;20481;-47
2023/09/18 12:48:26;;;;;;;20.07;18.97;;;;;;;;;;4996095;28;20454;-46
2023/09/18 12:50:55;;;;;;;19.80;18.70;;;;;;;;;;4995499;28;20424;-45
2023/09/18 12:53:24;;;;;;;20.50;19.47;;;;;;;;;;4995783;28;20420;-45
2023/09/18 12:55:50;;;;;;;19.73;18.63;;;;;;;;;;4995653;28;20896;-45
2023/09/18 12:58:20;;;;;;;20.70;19.70;;;;;;;;;;4995663;28;20470;-45
2023/09/18 13:00:47;;;;;;;21.33;20.23;;;;;;;;;;4997233;28;20428;-46
2023/09/18 13:03:13;;;;;;;20.57;19.57;;;;;;;;;;4999020;28;20415;-45
2023/09/18 13:05:39;;;;;;;21.00;19.90;;;;;;;;;;5000434;28;20402;-45
2023/09/18 13:08:06;;;;;;;19.70;18.80;;;;;;;;;;4995749;28;20411;-45
2023/09/18 13:10:44;;;;;;;20.90;19.90;;;;;;;;;;4995133;28;20459;-45
2023/09/18 13:13:16;;;;;;;20.40;19.40;;;;;;;;;;4988084;28;20788;-46
2023/09/18 13:15:45;;;;;;;19.23;18.33;;;;;;;;;;4995268;28;20490;-46
2023/09/18 13:18:11;;;;;;;19.53;18.53;;;;;;;;;;4994685;28;20922;-45
2023/09/18 13:20:39;;;;;;;21.00;20.00;;;;;;;;;;4995056;28;20442;-47
2023/09/18 13:23:05;;;;;;;19.83;18.83;;;;;;;;;;5001777;28;20518;-45
2023/09/18 13:25:33;;;;;;;19.20;18.30;;;;;;;;;;4995262;28;20487;-45
2023/09/18 13:28:00;;;;;;;18.20;17.30;;;;;;;;;;4996866;28;20422;-45
2023/09/18 13:30:26;;;;;;;19.20;18.20;;;;;;;;;;4995774;28;20574;-47
2023/09/18 13:33:02;;;;;;;19.23;18.33;;;;;;;;;;4997169;28;20795;-47
2023/09/18 13:35:28;;;;;;;19.53;18.53;;;;;;;;;;5000052;28;20411;-45
2023/09/18 13:37:54;;;;;;;19.00;18.03;;;;;;;;;;4994866;28;20419;-45
2023/09/18 13:40:22;;;;;;;18.40;17.60;;;;;;;;;;4994453;28;20439;-45
2023/09/18 13:42:48;;;;;;;18.60;17.70;;;;;;;;;;4995006;28;20448;-46
2023/09/18 13:45:18;;;;;;;18.60;17.67;;;;;;;;;;4997386;28;20785;-46
2023/09/18 13:47:44;;;;;;;18.80;17.80;;;;;;;;;;4999681;28;20422;-46
2023/09/18 13:50:10;;;;;;;18.63;17.73;;;;;;;;;;4996922;28;20463;-45
2023/09/18 13:52:37;;;;;;;17.67;16.77;;;;;;;;;;4998941;28;20899;-46
2023/09/18 13:55:08;;;;;;;18.80;17.80;;;;;;;;;;4994673;28;20478;-45
2023/09/18 13:57:34;;;;;;;19.27;18.37;;;;;;;;;;4996384;28;20474;-45
2023/09/18 14:00:01;;;;;;;18.73;17.77;;;;;;;;;;4994253;28;20500;-45
2023/09/18 14:02:27;;;;;;;18.97;17.97;;;;;;;;;;4999544;28;20443;-47
2023/09/18 14:04:53;;;;;;;18.50;17.60;;;;;;;;;;5000978;28;20408;-45
2023/09/18 14:07:19;;;;;;;19.20;18.20;;;;;;;;;;4994257;28;20506;-45
2023/09/18 14:09:46;;;;;;;18.73;17.73;;;;;;;;;;4995608;28;20554;-47
2023/09/18 14:12:12;;;;;;;18.00;17.10;;;;;;;;;;4994364;28;20469;-45
2023/09/18 14:14:40;;;;;;;17.93;17.03;;;;;;;;;;4994318;28;20443;-46
2023/09/18 14:17:06;;;;;;;18.63;17.70;;;;;;;;;;4994205;28;20434;-44